createdAt,value
2023-03-06T02:23:39.984Z,6.40
2023-03-06T02:30:15.378Z,6.33
2023-03-06T02:32:42.323Z,5.93
2023-03-06T02:35:21.916Z,5.57
2023-03-06T02:37:49.451Z,5.67
2023-03-06T02:40:17.692Z,5.87
2023-03-06T02:42:58.223Z,5.80
2023-03-06T02:45:39.389Z,5.87
2023-03-06T02:48:07.083Z,6.23
2023-03-06T02:50:33.980Z,5.70
2023-03-06T02:53:01.041Z,5.47
2023-03-06T02:55:27.904Z,5.63
2023-03-06T02:57:54.768Z,5.97
2023-03-06T03:00:22.129Z,5.53
2023-03-06T03:02:49.115Z,4.90
2023-03-06T03:05:16.124Z,5.20
2023-03-06T03:07:43.251Z,4.70
2023-03-06T03:10:11.027Z,4.50
2023-03-06T03:12:38.253Z,4.67
2023-03-06T03:15:06.600Z,4.43
2023-03-06T03:17:39.795Z,4.20
2023-03-06T03:20:18.011Z,3.53
2023-03-06T03:22:49.810Z,5.30
2023-03-06T03:25:17.391Z,4.40
2023-03-06T03:27:44.306Z,3.90
2023-03-06T03:30:12.248Z,4.13
2023-03-06T03:32:39.393Z,3.80
2023-03-06T03:35:09.376Z,3.70
2023-03-06T03:37:37.348Z,4.00
2023-03-06T03:40:06.983Z,3.40
2023-03-06T03:42:33.943Z,3.10
2023-03-06T03:45:00.861Z,3.47
2023-03-06T03:47:27.785Z,3.27
2023-03-06T03:49:54.663Z,3.97
2023-03-06T03:52:21.788Z,3.67
2023-03-06T03:54:48.646Z,3.00
2023-03-06T03:57:15.543Z,3.20
2023-03-06T03:59:42.466Z,3.57
2023-03-06T04:02:09.334Z,3.00
2023-03-06T04:04:36.278Z,2.67
2023-03-06T04:07:04.374Z,2.97
2023-03-06T04:09:31.269Z,3.10
2023-03-06T04:11:58.349Z,3.80
2023-03-06T04:14:25.280Z,3.27
2023-03-06T04:16:52.160Z,3.20
2023-03-06T04:19:19.121Z,2.93
2023-03-06T04:21:46.097Z,9.07
2023-03-06T04:24:13.180Z,5.00
2023-03-06T04:26:40.131Z,2.73
2023-03-06T04:29:07.078Z,2.50
2023-03-06T04:31:34.078Z,2.03
2023-03-06T04:34:01.004Z,1.93
2023-03-06T04:36:31.994Z,2.43
2023-03-06T04:39:00.109Z,2.10
2023-03-06T04:41:27.329Z,1.77
2023-03-06T04:43:54.536Z,2.40
2023-03-06T04:46:21.430Z,2.37
2023-03-06T04:48:48.363Z,1.67
2023-03-06T04:51:15.580Z,2.20
2023-03-06T04:53:42.481Z,1.57
2023-03-06T04:56:09.689Z,1.83
2023-03-06T04:58:36.671Z,2.60
2023-03-06T05:01:04.309Z,2.33
2023-03-06T05:03:31.220Z,2.30
2023-03-06T05:05:58.269Z,2.40
2023-03-06T05:08:25.200Z,2.60
2023-03-06T05:11:00.615Z,2.53
2023-03-06T05:13:28.651Z,2.20
2023-03-06T05:15:55.986Z,1.70
2023-03-06T05:18:22.875Z,2.30
2023-03-06T05:20:49.759Z,2.30
2023-03-06T05:23:16.671Z,2.10
2023-03-06T05:25:43.540Z,2.37
2023-03-06T05:28:10.442Z,2.00
2023-03-06T05:30:37.347Z,1.87
2023-03-06T05:33:04.374Z,1.80
2023-03-06T05:35:32.130Z,1.70
2023-03-06T05:37:59.022Z,2.20
2023-03-06T05:40:26.351Z,1.53
2023-03-06T05:42:53.470Z,2.03
2023-03-06T05:45:20.496Z,2.30
2023-03-06T05:47:47.441Z,2.33
2023-03-06T05:50:14.814Z,2.47
2023-03-06T05:52:41.787Z,1.77
2023-03-06T05:55:12.112Z,2.07
2023-03-06T05:57:39.301Z,2.20
2023-03-06T06:00:07.429Z,2.80
2023-03-06T06:02:34.362Z,2.17
2023-03-06T06:05:03.061Z,2.80
2023-03-06T06:07:30.003Z,2.30
2023-03-06T06:09:56.842Z,2.60
2023-03-06T06:12:23.872Z,2.97
2023-03-06T06:14:50.909Z,3.80
2023-03-06T06:17:17.805Z,2.93
2023-03-06T06:19:45.093Z,3.23
2023-03-06T06:22:12.512Z,2.80
2023-03-06T06:24:39.827Z,4.07
2023-03-06T06:27:07.727Z,3.37
2023-03-06T06:29:34.654Z,4.27
2023-03-06T06:32:02.227Z,3.70
2023-03-06T06:34:30.457Z,3.90
2023-03-06T06:36:57.478Z,4.60
2023-03-06T06:39:25.180Z,3.63
2023-03-06T06:42:09.682Z,3.60
2023-03-06T06:44:39.883Z,3.90
2023-03-06T06:47:24.900Z,3.70
2023-03-06T06:49:54.879Z,3.90
2023-03-06T06:52:23.776Z,5.30
2023-03-06T06:54:51.242Z,4.10
2023-03-06T06:57:18.673Z,5.00
2023-03-06T06:59:45.575Z,4.90
2023-03-06T07:02:14.668Z,5.90
2023-03-06T07:04:56.178Z,26.27
2023-03-06T07:07:27.723Z,13.43
2023-03-06T07:09:55.843Z,11.43
2023-03-06T07:12:22.830Z,6.37
2023-03-06T07:14:49.740Z,3.93
2023-03-06T07:17:16.707Z,3.43
2023-03-06T07:19:43.634Z,4.33
2023-03-06T07:22:10.566Z,3.97
2023-03-06T07:24:37.496Z,3.57
2023-03-06T07:27:04.371Z,3.20
2023-03-06T07:29:32.978Z,3.67
2023-03-06T07:32:00.171Z,4.37
2023-03-06T07:34:27.182Z,3.90
2023-03-06T07:36:54.159Z,4.37
2023-03-06T07:39:21.128Z,3.37
2023-03-06T07:41:48.039Z,3.47
2023-03-06T07:44:14.946Z,3.40
2023-03-06T07:46:41.933Z,3.40
2023-03-06T07:49:08.933Z,4.60
2023-03-06T07:51:35.808Z,3.90
2023-03-06T07:54:02.851Z,3.00
2023-03-06T07:56:30.005Z,3.40
2023-03-06T07:58:57.239Z,3.00
2023-03-06T08:01:24.243Z,2.77
2023-03-06T08:03:52.138Z,3.53
2023-03-06T08:06:23.620Z,3.30
2023-03-06T08:08:52.602Z,3.10
2023-03-06T08:11:23.635Z,25.60
2023-03-06T08:13:52.677Z,4.80
2023-03-06T08:16:25.937Z,3.63
2023-03-06T08:18:53.163Z,4.50
2023-03-06T08:21:24.710Z,8.30
2023-03-06T08:23:52.209Z,4.37
2023-03-06T08:39:53.140Z,2.83
2023-03-06T08:50:36.627Z,2.27
2023-03-06T08:53:22.739Z,2.00
2023-03-06T16:31:40.958Z,1.13
2023-03-06T16:34:07.826Z,1.23
2023-03-06T16:36:34.767Z,1.00
2023-03-06T16:39:01.739Z,1.43
2023-03-06T16:41:28.616Z,1.23
2023-03-06T16:43:55.661Z,1.53
2023-03-06T16:46:24.608Z,0.90
2023-03-06T16:48:52.629Z,1.10
2023-03-06T16:51:23.048Z,1.73
2023-03-06T16:53:51.010Z,1.00
2023-03-06T16:56:20.488Z,1.37
2023-03-06T16:58:48.467Z,1.10
2023-03-06T17:01:18.552Z,1.30
2023-03-06T17:03:46.403Z,2.10
2023-03-06T17:06:20.110Z,5.83
2023-03-06T17:08:48.708Z,1.40
2023-03-06T17:11:16.633Z,1.37
2023-03-06T17:13:44.337Z,1.40
2023-03-06T17:16:16.395Z,1.40
2023-03-06T17:18:45.441Z,1.50
2023-03-06T17:21:15.652Z,2.30
2023-03-06T17:23:42.990Z,1.33
2023-03-06T17:26:18.837Z,1.30
2023-03-06T17:28:47.121Z,1.70
2023-03-06T17:31:25.405Z,1.53
2023-03-06T17:33:57.053Z,1.73
2023-03-06T17:36:23.939Z,1.27
2023-03-06T17:38:54.963Z,1.80
2023-03-06T17:41:24.387Z,2.20
2023-03-06T17:44:01.658Z,3.17
2023-03-06T17:46:28.692Z,2.30
2023-03-06T17:48:56.565Z,2.20
2023-03-06T17:51:23.887Z,2.57
2023-03-06T17:53:52.167Z,3.70
2023-03-06T17:56:19.260Z,3.10
2023-03-06T17:58:46.139Z,3.90
2023-03-06T18:01:20.451Z,3.20
2023-03-06T18:03:50.772Z,3.87
2023-03-06T18:06:19.373Z,3.10
2023-03-06T18:08:46.585Z,3.60
2023-03-06T18:11:14.204Z,3.60
2023-03-06T18:13:43.906Z,12.13
2023-03-06T18:16:13.752Z,3.83
2023-03-06T18:18:41.048Z,4.80
2023-03-06T18:21:11.727Z,4.00
2023-03-06T18:23:39.971Z,3.80
2023-03-06T18:26:11.659Z,4.63
2023-03-06T18:28:44.662Z,4.70
2023-03-06T18:31:27.895Z,4.70
2023-03-06T18:34:01.385Z,4.67
2023-03-06T18:36:32.074Z,4.73
2023-03-06T18:39:00.831Z,4.80
2023-03-06T18:41:27.822Z,6.27
2023-03-06T18:44:00.402Z,5.10
2023-03-06T18:46:33.563Z,5.97
2023-03-06T18:49:00.532Z,6.47
2023-03-06T18:51:28.439Z,11.93
2023-03-06T18:54:03.709Z,10.43
2023-03-06T18:56:31.261Z,8.10
2023-03-06T18:59:06.493Z,11.57
2023-03-06T19:01:34.249Z,10.03
2023-03-06T19:04:03.213Z,7.60
2023-03-06T19:06:30.717Z,5.83
2023-03-06T19:09:02.189Z,6.67
2023-03-06T19:11:29.672Z,7.37
2023-03-06T19:13:56.534Z,7.10
2023-03-06T19:16:26.988Z,6.33
2023-03-06T19:18:55.695Z,6.60
2023-03-06T19:21:25.636Z,7.40
2023-03-06T19:23:52.993Z,7.20
2023-03-06T19:26:20.214Z,6.50
2023-03-06T19:28:48.235Z,7.27
2023-03-06T19:31:25.680Z,6.20
2023-03-06T19:33:54.823Z,7.40
2023-03-06T19:36:26.770Z,6.50
2023-03-06T19:39:03.553Z,6.80
2023-03-06T19:41:31.088Z,6.73
2023-03-06T19:44:02.310Z,6.80
2023-03-06T19:46:29.517Z,7.47
2023-03-06T19:48:59.273Z,6.37
2023-03-06T19:51:27.145Z,6.80
2023-03-06T19:53:54.425Z,6.10
2023-03-06T19:56:27.517Z,6.57
2023-03-06T19:58:55.102Z,6.37
2023-03-06T20:01:24.987Z,6.77
2023-03-06T20:03:59.067Z,6.77
2023-03-06T20:06:29.799Z,5.93
2023-03-06T20:08:57.415Z,7.90
2023-03-06T20:11:32.396Z,7.30
2023-03-06T20:14:02.113Z,7.67
2023-03-06T20:16:29.980Z,7.97
2023-03-06T20:18:59.923Z,8.60
2023-03-06T20:21:29.935Z,8.13
2023-03-06T20:23:58.234Z,6.93
2023-03-06T20:26:28.226Z,8.10
2023-03-06T20:28:55.656Z,9.40
2023-03-06T20:31:26.884Z,8.80
2023-03-06T20:33:57.584Z,8.30
2023-03-06T20:36:28.903Z,7.00
2023-03-06T20:38:59.261Z,7.80
2023-03-06T20:41:29.157Z,7.20
2023-03-06T20:43:58.158Z,5.93
2023-03-06T20:46:25.450Z,6.80
2023-03-06T20:48:54.146Z,6.10
2023-03-06T20:51:24.170Z,6.53
2023-03-06T20:53:55.655Z,6.30
2023-03-06T20:56:26.272Z,6.13
2023-03-06T20:58:53.958Z,6.70
2023-03-06T21:01:27.508Z,6.70
2023-03-06T21:03:56.858Z,7.20
2023-03-06T21:06:25.423Z,6.20
2023-03-06T21:08:52.453Z,6.87
2023-03-06T21:11:19.432Z,6.97
2023-03-06T21:13:46.600Z,7.20
2023-03-06T21:16:18.046Z,7.10
2023-03-06T21:18:45.495Z,6.73
2023-03-06T21:21:21.186Z,7.40
2023-03-06T21:23:48.974Z,6.50
2023-03-06T21:26:22.398Z,7.00
2023-03-06T21:28:50.008Z,5.57
2023-03-06T21:31:20.020Z,7.47
2023-03-06T21:33:48.726Z,6.57
2023-03-06T21:36:16.587Z,6.80
2023-03-06T21:38:43.542Z,7.57
2023-03-06T21:41:24.584Z,10.10
2023-03-06T21:44:00.753Z,10.93
2023-03-06T21:46:28.592Z,7.70
2023-03-06T21:48:56.564Z,6.80
2023-03-06T21:51:24.995Z,5.90
2023-03-06T21:53:53.132Z,5.47
2023-03-06T21:56:24.969Z,6.87
2023-03-06T21:58:52.176Z,6.63
2023-03-06T22:01:24.970Z,6.90
2023-03-06T22:03:52.173Z,6.53
2023-03-06T22:06:25.461Z,6.30
2023-03-06T22:08:54.659Z,6.40
2023-03-06T22:11:23.253Z,6.23
2023-03-06T22:13:50.471Z,6.43
2023-03-06T22:16:18.324Z,6.03
2023-03-06T22:18:50.660Z,4.83
2023-03-06T22:21:20.763Z,6.50
2023-03-06T22:23:59.291Z,5.50
2023-03-06T22:26:29.949Z,5.70
2023-03-06T22:28:57.168Z,5.60
2023-03-06T22:31:28.419Z,6.70
2023-03-06T22:33:58.433Z,5.80
2023-03-06T22:36:27.105Z,5.70
2023-03-06T22:38:57.296Z,6.07
2023-03-06T22:41:26.666Z,5.97
2023-03-06T22:44:01.816Z,6.07
2023-03-06T22:46:29.162Z,6.30
2023-03-06T22:48:58.229Z,6.67
2023-03-06T22:51:26.324Z,6.33
2023-03-06T22:53:53.799Z,6.60
2023-03-06T22:56:22.151Z,5.97
2023-03-06T22:58:49.523Z,6.43
2023-03-06T23:01:23.313Z,6.20
2023-03-06T23:03:54.505Z,5.60
2023-03-06T23:06:47.615Z,5.60
2023-03-06T23:09:18.193Z,6.70
2023-03-06T23:11:45.054Z,6.30
2023-03-06T23:14:13.261Z,6.13
2023-03-06T23:16:40.585Z,6.03
2023-03-06T23:19:07.914Z,6.23
2023-03-06T23:21:34.935Z,6.13
2023-03-06T23:24:02.387Z,5.20
2023-03-06T23:26:31.079Z,6.03
2023-03-06T23:28:58.400Z,6.70
2023-03-06T23:31:29.214Z,5.93
2023-03-06T23:34:02.207Z,5.27
2023-03-06T23:36:30.237Z,5.30
2023-03-06T23:38:58.020Z,5.50
2023-03-06T23:41:25.670Z,6.13
2023-03-06T23:43:55.059Z,6.70
2023-03-06T23:46:22.583Z,6.50
2023-03-06T23:48:49.650Z,6.13
2023-03-06T23:51:19.966Z,7.53
2023-03-06T23:53:52.446Z,5.73
2023-03-06T23:56:19.506Z,6.97
2023-03-06T23:58:46.949Z,6.50
